Time;durP1;ratioP1;P1;durP2;ratioP2;P2;SDS_P1;SDS_P2;PMS_P1;PMS_P2;Temp;Humidity;BMP_temperature;BMP_pressure;BME280_temperature;BME280_humidity;BME280_pressure;Samples;Min_cycle;Max_cycle;Signal;HPM_P1;HPM_P2
2022/12/15 00:40:15;;;;;;;17.27;12.30;;;1.50;1.00;;;;;;5011520;28;20588;-65
2022/12/15 00:42:41;;;;;;;20.40;13.10;;;1.40;1.00;;;;;;5010259;28;20408;-65
2022/12/15 00:45:07;;;;;;;14.27;12.27;;;1.50;1.00;;;;;;5012474;28;20258;-65
2022/12/15 00:47:33;;;;;;;13.93;11.90;;;1.50;1.00;;;;;;5012386;28;20172;-67
2022/12/15 01:20:16;;;;;;;18.33;13.40;;;1.70;99.90;;;;;;4970772;28;20463;-67
2022/12/15 01:22:44;;;;;;;19.13;13.43;;;1.70;39.80;;;;;;4975050;28;20777;-67
2022/12/15 01:25:10;;;;;;;18.07;12.70;;;1.50;1.00;;;;;;5017129;28;20443;-66
2022/12/15 01:27:36;;;;;;;22.30;13.80;;;1.60;1.00;;;;;;4994672;28;20440;-59
2022/12/15 01:30:04;;;;;;;21.90;15.07;;;1.70;1.00;;;;;;4992750;28;20486;-62
2022/12/15 01:32:30;;;;;;;24.00;13.50;;;1.60;1.00;;;;;;4995137;28;20476;-59
2022/12/15 01:34:56;;;;;;;15.30;11.83;;;1.50;1.00;;;;;;5012282;28;20430;-61
2022/12/15 01:37:22;;;;;;;18.43;13.40;;;1.50;1.00;;;;;;5012326;28;20510;-62
2022/12/15 01:42:32;;;;;;;18.57;13.33;;;1.50;99.90;;;;;;5011559;28;20251;-64
2022/12/15 01:45:22;;;;;;;23.27;13.17;;;1.50;99.90;;;;;;5012569;28;20947;-63
2022/12/15 01:48:09;;;;;;;18.07;13.10;;;1.40;99.90;;;;;;5012201;28;20167;-63
2022/12/15 01:51:12;;;;;;;17.53;12.97;;;1.50;99.90;;;;;;5011132;28;20421;-63
2022/12/15 01:54:16;;;;;;;17.03;12.20;;;1.60;1.00;;;;;;5010624;28;20411;-63
2022/12/15 01:56:54;;;;;;;17.50;12.23;;;1.60;1.00;;;;;;4995762;28;20410;-64
2022/12/15 01:59:25;;;;;;;16.50;13.13;;;1.60;1.00;;;;;;5011884;28;20818;-64
2022/12/15 02:01:51;;;;;;;16.23;12.20;;;1.70;99.90;;;;;;5011360;28;20527;-61
2022/12/15 02:04:21;;;;;;;19.20;14.10;;;1.60;99.90;;;;;;5012140;28;20408;-64
2022/12/15 02:06:47;;;;;;;18.07;12.97;;;1.60;1.00;;;;;;5011706;28;20172;-62
2022/12/15 02:09:14;;;;;;;15.50;13.63;;;1.60;1.00;;;;;;5011881;28;20565;-64
2022/12/15 02:11:43;;;;;;;20.33;14.50;;;1.60;1.00;;;;;;5010423;28;20196;-65
2022/12/15 02:14:10;;;;;;;23.13;15.03;;;1.60;1.00;;;;;;5011674;28;20411;-62
2022/12/15 02:16:59;;;;;;;19.60;14.37;;;1.60;1.00;;;;;;5009832;28;20419;-64
2022/12/15 02:20:02;;;;;;;17.20;13.90;;;1.60;1.00;;;;;;5011076;28;20458;-64
2022/12/15 02:23:09;;;;;;;20.20;13.73;;;1.60;1.00;;;;;;5010879;28;20769;-64
2022/12/15 02:25:53;;;;;;;19.00;12.63;;;1.70;1.00;;;;;;4997320;28;20411;-63
2022/12/15 02:28:37;;;;;;;19.03;13.67;;;1.70;1.00;;;;;;5011658;28;20431;-64
2022/12/15 02:34:07;;;;;;;18.53;12.63;;;1.60;1.00;;;;;;5011473;28;20935;-64
2022/12/15 02:36:37;;;;;;;27.33;14.13;;;1.50;1.00;;;;;;5011329;28;20399;-64
2022/12/15 02:39:04;;;;;;;17.93;12.80;;;1.60;1.00;;;;;;5011112;28;20455;-65
2022/12/15 02:41:35;;;;;;;16.87;13.73;;;1.60;1.00;;;;;;5010204;28;20868;-63
2022/12/15 02:44:11;;;;;;;19.07;14.40;;;1.50;99.90;;;;;;5011081;28;20494;-63
2022/12/15 02:46:57;;;;;;;17.47;12.97;;;1.60;99.90;;;;;;5011174;28;20395;-62
2022/12/15 02:49:41;;;;;;;20.90;12.33;;;1.50;99.90;;;;;;5010422;28;20404;-63
2022/12/15 02:52:25;;;;;;;17.93;12.40;;;1.60;1.00;;;;;;5010038;28;20477;-64
2022/12/15 02:55:03;;;;;;;18.53;12.70;;;1.70;1.00;;;;;;5011146;28;20914;-61
2022/12/15 02:57:50;;;;;;;18.83;13.80;;;1.40;99.90;;;;;;5009358;28;20422;-61
2022/12/15 03:00:20;;;;;;;19.83;13.00;;;1.40;1.00;;;;;;5010576;28;20561;-66
2022/12/15 03:02:49;;;;;;;18.03;12.33;;;1.20;1.00;;;;;;5009014;28;20402;-63
2022/12/15 03:05:16;;;;;;;18.63;14.20;;;1.20;99.90;;;;;;5010848;28;20417;-63
2022/12/15 03:07:42;;;;;;;21.27;13.93;;;1.30;1.00;;;;;;5010988;28;20411;-64
2022/12/15 03:10:10;;;;;;;18.43;14.10;;;1.30;1.00;;;;;;5010764;28;20450;-65
2022/12/15 03:12:36;;;;;;;18.80;14.20;;;1.50;99.90;;;;;;5009239;28;20205;-62
2022/12/15 03:15:02;;;;;;;21.27;14.27;;;1.20;1.00;;;;;;5009840;28;20799;-64
2022/12/15 03:17:27;;;;;;;16.13;13.07;;;1.00;1.00;;;;;;5009765;28;20172;-63
2022/12/15 03:19:53;;;;;;;19.27;14.30;;;1.20;1.00;;;;;;5021260;28;20279;-63
2022/12/15 03:22:19;;;;;;;30.23;14.10;;;1.20;34.30;;;;;;5009970;28;20176;-63
2022/12/15 03:24:45;;;;;;;19.77;13.97;;;1.20;1.00;;;;;;5009759;28;20168;-61
2022/12/15 03:27:10;;;;;;;19.33;14.03;;;1.40;1.00;;;;;;5010434;28;20400;-61
2022/12/15 03:29:36;;;;;;;18.30;13.03;;;1.60;99.90;;;;;;5010677;28;20176;-61
2022/12/15 03:32:02;;;;;;;18.40;13.37;;;1.60;1.00;;;;;;5008284;28;20238;-62
2022/12/15 03:34:28;;;;;;;20.90;13.03;;;1.60;99.90;;;;;;5010407;28;20624;-62
2022/12/15 03:36:53;;;;;;;22.87;14.37;;;1.40;1.00;;;;;;5010721;28;20206;-61
2022/12/15 03:39:19;;;;;;;18.60;13.63;;;1.40;1.00;;;;;;5010775;28;20524;-64
2022/12/15 03:41:45;;;;;;;22.23;14.57;;;1.50;1.00;;;;;;5009573;28;20184;-60
2022/12/15 03:44:10;;;;;;;20.37;13.80;;;1.60;99.90;;;;;;5010627;28;20183;-62
2022/12/15 03:46:36;;;;;;;18.90;14.60;;;1.60;99.90;;;;;;5010312;28;20160;-57
2022/12/15 03:49:02;;;;;;;17.20;12.87;;;1.60;99.90;;;;;;5010146;28;20644;-59
2022/12/15 03:51:28;;;;;;;20.93;14.73;;;1.40;1.00;;;;;;5009445;28;20181;-57
2022/12/15 03:53:53;;;;;;;24.10;14.27;;;1.30;1.00;;;;;;5010191;28;20177;-63
2022/12/15 03:56:19;;;;;;;21.17;14.57;;;1.00;99.90;;;;;;5011400;28;20264;-60
2022/12/15 03:58:45;;;;;;;18.70;14.47;;;1.00;1.00;;;;;;5010315;28;20196;-61
2022/12/15 04:01:26;;;;;;;20.30;14.13;;;0.90;86.70;;;;;;5011636;28;20612;-63
2022/12/15 04:03:52;;;;;;;21.20;14.27;;;0.80;99.90;;;;;;5014265;28;20399;-62
2022/12/15 04:06:18;;;;;;;21.17;14.93;;;1.10;1.00;;;;;;5013974;28;20768;-61
2022/12/15 04:08:43;;;;;;;30.57;15.70;;;1.20;1.00;;;;;;5014342;28;20263;-58
2022/12/15 04:11:09;;;;;;;20.20;15.30;;;1.30;1.00;;;;;;5012794;28;20850;-62
2022/12/15 04:13:35;;;;;;;20.30;14.17;;;1.40;99.90;;;;;;5013942;28;20176;-62
2022/12/15 04:16:01;;;;;;;24.90;14.47;;;1.50;1.00;;;;;;5013700;28;20672;-65
2022/12/15 04:18:28;;;;;;;22.80;14.43;;;1.40;99.90;;;;;;5013731;28;20199;-64
2022/12/15 04:20:54;;;;;;;17.90;13.10;;;1.50;99.90;;;;;;5012857;28;20434;-64
2022/12/15 04:23:21;;;;;;;17.30;13.30;;;1.60;1.00;;;;;;5014073;28;20744;-63
2022/12/15 05:31:54;;;;;;;30.20;18.40;;;-0.30;1.00;;;;;;5011909;28;20442;-67
2022/12/15 05:34:25;;;;;;;28.33;17.50;;;-0.50;1.00;;;;;;4994818;28;20426;-64
2022/12/15 05:36:52;;;;;;;31.97;20.13;;;-0.40;1.00;;;;;;4992763;28;20414;-65
2022/12/15 05:39:18;;;;;;;28.97;17.93;;;-0.10;1.00;;;;;;4992444;28;20479;-64
2022/12/15 05:41:44;;;;;;;25.83;16.70;;;0.10;1.00;;;;;;4991423;28;20423;-64
2022/12/15 05:44:10;;;;;;;28.87;17.97;;;0.20;99.90;;;;;;4992818;28;20925;-65
2022/12/15 05:46:36;;;;;;;33.47;19.73;;;0.10;1.00;;;;;;4992521;28;20200;-65
2022/12/15 05:49:06;;;;;;;37.53;19.70;;;-0.10;99.90;;;;;;4992710;28;20173;-66
2022/12/15 05:51:32;;;;;;;35.00;19.13;;;0.10;1.00;;;;;;4992178;28;20192;-66
2022/12/15 05:53:58;;;;;;;29.30;19.50;;;0.10;99.90;;;;;;4992484;28;20489;-66
2022/12/15 05:56:24;;;;;;;30.57;19.93;;;0.20;99.90;;;;;;4992223;28;20188;-65
2022/12/15 05:58:50;;;;;;;33.90;19.53;;;0.30;99.90;;;;;;4993446;28;20537;-65
2022/12/15 06:01:18;;;;;;;34.67;21.37;;;;;;;;;;4992290;28;20448;-66
2022/12/15 06:03:44;;;;;;;27.43;18.77;;;-0.60;1.00;;;;;;4995936;28;20179;-65
2022/12/15 06:06:11;;;;;;;33.43;19.27;;;-0.40;1.00;;;;;;5013138;28;20414;-66
2022/12/15 06:08:39;;;;;;;32.23;20.20;;;-0.20;1.00;;;;;;5012471;28;20723;-64
2022/12/15 06:11:05;;;;;;;30.00;20.10;;;-0.30;1.00;;;;;;5011259;28;20493;-67
2022/12/15 06:13:33;;;;;;;32.40;21.07;;;0.00;1.00;;;;;;5011157;28;20431;-65
2022/12/15 06:16:01;;;;;;;30.27;18.87;;;-0.30;1.00;;;;;;5012409;28;20419;-66
2022/12/15 06:18:30;;;;;;;35.83;19.77;;;0.00;1.00;;;;;;5022131;28;20492;-65
2022/12/15 06:21:00;;;;;;;35.40;22.80;;;0.20;53.10;;;;;;5027910;28;20455;-65
2022/12/15 06:23:31;;;;;;;36.33;20.60;;;-0.10;99.90;;;;;;5021845;28;20407;-66
2022/12/15 06:25:58;;;;;;;32.90;20.10;;;-0.30;99.90;;;;;;5011198;28;20415;-65
2022/12/15 06:28:24;;;;;;;34.57;20.83;;;-0.40;1.00;;;;;;5011619;28;20494;-65
2022/12/15 06:30:59;;;;;;;35.00;22.20;;;-0.50;1.00;;;;;;5008819;28;20455;-67
2022/12/15 06:33:27;;;;;;;31.10;22.10;;;-0.40;1.00;;;;;;5005038;28;20653;-65
2022/12/15 06:35:53;;;;;;;33.40;20.63;;;0.00;1.00;;;;;;5023260;28;20412;-65
2022/12/15 06:38:18;;;;;;;38.10;21.60;;;0.20;99.90;;;;;;5017119;28;20496;-66
2022/12/15 06:40:44;;;;;;;38.17;21.23;;;0.30;99.90;;;;;;5007791;28;20536;-65
2022/12/15 06:43:10;;;;;;;37.60;22.10;;;0.40;1.00;;;;;;5010515;28;20177;-66
2022/12/15 06:45:36;;;;;;;31.27;20.80;;;0.10;99.90;;;;;;5009419;28;20200;-66
2022/12/15 06:48:02;;;;;;;40.27;21.37;;;0.30;99.90;;;;;;5003511;28;20459;-66
2022/12/15 06:50:28;;;;;;;36.03;19.93;;;0.30;1.00;;;;;;5005203;28;20196;-66
2022/12/15 06:52:53;;;;;;;58.97;24.60;;;0.10;99.90;;;;;;5003895;28;20244;-65
2022/12/15 06:55:19;;;;;;;30.30;19.47;;;0.40;99.90;;;;;;5004788;28;20719;-66
2022/12/15 06:57:47;;;;;;;32.93;19.70;;;0.20;99.90;;;;;;5006866;28;20790;-64
2022/12/15 07:00:14;;;;;;;33.57;19.73;;;-0.20;99.90;;;;;;4999150;28;20239;-66
2022/12/15 07:02:41;;;;;;;36.33;20.43;;;-0.30;99.90;;;;;;5006316;28;20459;-64
2022/12/15 07:05:08;;;;;;;41.13;21.90;;;0.00;99.90;;;;;;5005734;28;20454;-68
2022/12/15 07:07:34;;;;;;;36.73;21.10;;;0.40;99.90;;;;;;5001672;28;20431;-63
2022/12/15 07:09:59;;;;;;;39.00;19.80;;;0.60;99.90;;;;;;5006496;28;20507;-65
2022/12/15 07:12:25;;;;;;;29.40;19.30;;;0.40;99.90;;;;;;5005805;28;20195;-65
2022/12/15 07:14:51;;;;;;;62.67;22.97;;;0.30;1.00;;;;;;5009760;28;20175;-66
2022/12/15 07:17:16;;;;;;;36.50;21.90;;;0.60;99.90;;;;;;5005067;28;20191;-64
2022/12/15 07:19:42;;;;;;;35.83;20.90;;;0.80;99.90;;;;;;5006951;28;20348;-66
2022/12/15 07:22:08;;;;;;;34.50;21.20;;;0.80;99.90;;;;;;5005708;28;20451;-65
2022/12/15 07:24:33;;;;;;;37.70;22.53;;;0.80;1.00;;;;;;5006325;28;20187;-62
2022/12/15 07:26:59;;;;;;;34.60;21.57;;;0.70;1.00;;;;;;5005377;28;20167;-65
2022/12/15 07:29:25;;;;;;;38.20;21.30;;;0.20;1.00;;;;;;5005412;28;20180;-65
2022/12/15 07:31:50;;;;;;;31.93;21.63;;;-0.20;1.00;;;;;;5006198;28;20517;-61
2022/12/15 07:34:16;;;;;;;37.23;24.10;;;-0.50;99.90;;;;;;5009675;28;20197;-63
2022/12/15 07:36:42;;;;;;;36.17;21.20;;;-0.80;1.00;;;;;;5002936;28;20187;-66
2022/12/15 07:39:10;;;;;;;36.90;21.27;;;-0.70;1.00;;;;;;5002116;28;20199;-64
2022/12/15 07:41:37;;;;;;;39.03;21.67;;;-0.50;1.00;;;;;;5005172;28;20196;-64
2022/12/15 07:44:03;;;;;;;38.90;22.93;;;-0.20;99.90;;;;;;5007514;28;20477;-63
2022/12/15 07:46:29;;;;;;;39.03;23.40;;;0.00;1.60;;;;;;5004352;28;20423;-62
2022/12/15 07:48:54;;;;;;;43.93;22.37;;;-0.20;99.90;;;;;;5004731;28;20176;-64
2022/12/15 07:51:20;;;;;;;32.07;20.93;;;-0.20;99.90;;;;;;5001530;28;20210;-63
2022/12/15 07:53:48;;;;;;;33.30;19.93;;;0.00;99.90;;;;;;5007497;28;20200;-63
2022/12/15 07:56:14;;;;;;;35.80;21.33;;;0.10;30.20;;;;;;5005585;28;20350;-66
2022/12/15 07:58:40;;;;;;;32.67;19.50;;;0.30;1.00;;;;;;5002640;28;20487;-64
2022/12/15 08:01:09;;;;;;;38.27;21.67;;;-0.50;1.00;;;;;;5004922;28;20208;-62
2022/12/15 08:03:35;;;;;;;34.03;22.00;;;-0.90;1.00;;;;;;5007662;28;20443;-65
2022/12/15 08:06:05;;;;;;;38.27;22.43;;;-0.50;1.00;;;;;;5007132;28;20481;-66
2022/12/15 08:08:32;;;;;;;37.67;23.13;;;-0.10;99.90;;;;;;5007824;28;20927;-66
2022/12/15 08:10:58;;;;;;;34.93;21.10;;;0.00;99.90;;;;;;5008774;28;20423;-64
2022/12/15 08:13:23;;;;;;;33.77;21.10;;;0.10;99.90;;;;;;5010419;28;20404;-63
2022/12/15 08:15:53;;;;;;;35.53;21.63;;;0.00;93.40;;;;;;5001899;28;20223;-66
2022/12/15 08:18:19;;;;;;;37.47;22.30;;;-0.10;99.90;;;;;;5010237;28;20222;-66
2022/12/15 08:20:45;;;;;;;40.23;22.40;;;-0.50;1.00;;;;;;5008989;28;21047;-66
2022/12/15 08:23:10;;;;;;;33.87;21.40;;;0.00;99.90;;;;;;5017880;28;20233;-67
2022/12/15 08:25:36;;;;;;;35.10;20.73;;;0.00;1.00;;;;;;5008644;28;20724;-67
2022/12/15 08:28:03;;;;;;;50.23;23.40;;;0.30;1.00;;;;;;5008732;28;20200;-66
2022/12/15 08:30:29;;;;;;;35.30;21.27;;;0.40;1.00;;;;;;4993776;28;20233;-65
2022/12/15 08:32:55;;;;;;;35.93;23.47;;;0.30;99.90;;;;;;4996440;28;20443;-67
2022/12/15 08:35:21;;;;;;;37.77;23.20;;;0.50;1.00;;;;;;5009747;28;20165;-65
2022/12/15 08:37:46;;;;;;;36.27;21.77;;;0.50;1.00;;;;;;5009559;28;20173;-67
2022/12/15 08:40:12;;;;;;;39.70;22.00;;;0.70;99.90;;;;;;5000533;28;20209;-68
2022/12/15 08:42:38;;;;;;;36.73;21.20;;;1.00;71.20;;;;;;5003802;28;20210;-65
2022/12/15 08:45:04;;;;;;;40.57;21.80;;;1.10;99.90;;;;;;5008854;28;20734;-66
2022/12/15 08:47:30;;;;;;;38.97;23.50;;;1.10;1.00;;;;;;5011566;28;20172;-67
2022/12/15 08:49:55;;;;;;;43.80;22.57;;;1.00;99.90;;;;;;5013209;28;20541;-65
2022/12/15 08:52:22;;;;;;;40.53;24.50;;;1.20;1.00;;;;;;5011934;28;20168;-66
2022/12/15 08:54:48;;;;;;;35.43;22.33;;;1.30;1.00;;;;;;5013016;28;20191;-65
2022/12/15 08:57:14;;;;;;;36.63;24.43;;;1.30;1.00;;;;;;5012558;28;20407;-65
2022/12/15 08:59:39;;;;;;;39.43;25.43;;;1.30;99.90;;;;;;5013205;28;20748;-67
2022/12/15 09:02:06;;;;;;;100.60;26.77;;;1.10;99.90;;;;;;5012312;28;20222;-68
2022/12/15 09:04:32;;;;;;;56.83;26.90;;;1.20;1.00;;;;;;5012639;28;20169;-67
2022/12/15 09:06:58;;;;;;;37.53;22.83;;;1.10;1.00;;;;;;5012954;28;21108;-68
2022/12/15 09:09:23;;;;;;;53.70;22.90;;;1.10;99.90;;;;;;5012691;28;20195;-69
2022/12/15 09:11:49;;;;;;;39.57;23.47;;;1.10;1.00;;;;;;5009967;28;20562;-68
2022/12/15 09:14:16;;;;;;;65.53;25.53;;;1.10;1.00;;;;;;5012427;28;20242;-68
2022/12/15 09:16:42;;;;;;;37.23;22.90;;;0.80;2.90;;;;;;5012421;28;20176;-67
2022/12/15 09:19:09;;;;;;;37.90;23.70;;;0.50;99.90;;;;;;5012510;28;20964;-67
2022/12/15 09:21:35;;;;;;;42.07;23.67;;;0.40;99.90;;;;;;5012004;28;20435;-65
2022/12/15 09:24:02;;;;;;;41.73;23.50;;;0.80;1.00;;;;;;5010220;28;20450;-66
2022/12/15 09:26:30;;;;;;;39.20;23.10;;;0.90;1.00;;;;;;5010497;28;20892;-66
2022/12/15 09:28:56;;;;;;;39.10;23.73;;;0.60;1.00;;;;;;5012311;28;20407;-66
2022/12/15 09:31:24;;;;;;;37.67;23.77;;;0.30;17.40;;;;;;5014712;28;20486;-65
2022/12/15 09:33:52;;;;;;;58.00;25.27;;;0.20;99.90;;;;;;5012135;28;20181;-66
2022/12/15 09:36:18;;;;;;;44.87;24.63;;;0.70;99.90;;;;;;5010804;28;20458;-66
2022/12/15 09:38:44;;;;;;;47.23;25.07;;;0.90;99.90;;;;;;5011943;28;20462;-63
2022/12/15 09:41:13;;;;;;;38.40;21.70;;;1.20;99.90;;;;;;5010556;28;20430;-63
2022/12/15 09:43:57;;;;;;;40.93;23.20;;;1.10;1.00;;;;;;5012187;28;20171;-63
2022/12/15 09:46:29;;;;;;;39.03;21.77;;;0.90;1.00;;;;;;5001846;28;21104;-64
2022/12/15 09:48:58;;;;;;;41.30;24.30;;;0.90;99.90;;;;;;4992786;28;20400;-65
2022/12/15 09:51:39;;;;;;;35.00;22.93;;;1.20;1.00;;;;;;4991324;28;20856;-65
2022/12/15 09:54:07;;;;;;;38.03;21.97;;;1.30;99.90;;;;;;5000461;28;20751;-62
2022/12/15 09:56:45;;;;;;;42.97;24.30;;;0.90;99.90;;;;;;5011365;28;20411;-62
2022/12/15 09:59:24;;;;;;;41.10;25.30;;;0.80;82.80;;;;;;5010821;28;20525;-62
2022/12/15 10:02:11;;;;;;;41.83;23.73;;;0.60;1.00;;;;;;5010606;28;20474;-64
2022/12/15 10:05:03;;;;;;;82.43;26.97;;;0.90;99.90;;;;;;5012123;28;20459;-61
2022/12/15 10:07:35;;;;;;;53.20;25.13;;;1.10;1.00;;;;;;4988456;28;20528;-62
2022/12/15 10:10:18;;;;;;;38.20;22.00;;;1.00;1.00;;;;;;5011948;28;20490;-63
2022/12/15 10:12:46;;;;;;;45.10;23.40;;;0.80;99.90;;;;;;5010722;28;20848;-63
2022/12/15 10:15:34;;;;;;;57.00;25.03;;;0.30;1.00;;;;;;5011347;28;20938;-63
2022/12/15 10:18:21;;;;;;;82.07;27.53;;;0.60;1.00;;;;;;5010995;28;20884;-65
2022/12/15 10:20:47;;;;;;;60.30;27.47;;;0.90;99.90;;;;;;5003882;28;21049;-66
2022/12/15 10:23:15;;;;;;;78.40;28.63;;;1.00;1.00;;;;;;5011285;28;20415;-63
2022/12/15 10:25:54;;;;;;;47.87;24.60;;;1.00;99.90;;;;;;5011163;28;20872;-64
2022/12/15 10:28:38;;;;;;;41.73;22.73;;;0.60;1.00;;;;;;5011194;28;20999;-60
2022/12/15 10:31:17;;;;;;;45.93;23.23;;;0.20;99.90;;;;;;5010360;28;20415;-64
2022/12/15 10:33:50;;;;;;;47.77;24.10;;;0.50;1.00;;;;;;4998380;28;20439;-66
2022/12/15 10:36:15;;;;;;;38.87;23.07;;;0.70;33.80;;;;;;4991513;28;20404;-63
2022/12/15 10:38:47;;;;;;;39.80;24.40;;;0.80;1.00;;;;;;5002224;28;20787;-64
2022/12/15 10:41:24;;;;;;;41.77;25.07;;;0.50;1.00;;;;;;5009698;28;20196;-64
2022/12/15 10:43:51;;;;;;;44.00;23.17;;;0.40;99.90;;;;;;5009995;28;20523;-65
2022/12/15 10:46:25;;;;;;;47.87;23.90;;;0.60;99.90;;;;;;5008838;28;20427;-64
2022/12/15 10:49:06;;;;;;;43.10;24.30;;;0.80;1.00;;;;;;5008875;28;20446;-64
2022/12/15 10:51:35;;;;;;;39.57;23.90;;;1.00;1.00;;;;;;5007724;28;20553;-64
2022/12/15 10:54:10;;;;;;;47.13;24.07;;;0.60;99.90;;;;;;5009089;28;20558;-65
2022/12/15 10:57:01;;;;;;;49.07;24.37;;;0.30;99.90;;;;;;5008188;28;20466;-63
2022/12/15 10:59:30;;;;;;;62.60;25.47;;;0.70;1.00;;;;;;5000413;28;20470;-64
2022/12/15 11:02:19;;;;;;;43.40;25.00;;;0.90;1.00;;;;;;5008009;28;20463;-65
2022/12/15 11:05:17;;;;;;;70.90;27.47;;;1.00;1.00;;;;;;5003313;28;20462;-63
2022/12/15 11:08:13;;;;;;;64.80;25.13;;;1.10;1.00;;;;;;4994803;28;20876;-64
2022/12/15 11:13:33;;;;;;;40.60;22.67;;;1.10;48.70;;;;;;5004245;28;20481;-62
2022/12/15 11:16:16;;;;;;;40.87;26.60;;;0.80;99.90;;;;;;5008627;28;20435;-64
2022/12/15 11:18:52;;;;;;;45.33;24.50;;;0.50;99.90;;;;;;5008160;28;20210;-66
2022/12/15 11:21:26;;;;;;;43.30;23.53;;;0.50;1.00;;;;;;5007511;28;20450;-66
2022/12/15 11:24:04;;;;;;;46.83;25.20;;;0.50;1.00;;;;;;5009193;28;21131;-63
2022/12/15 11:26:39;;;;;;;47.73;24.67;;;0.40;1.00;;;;;;5007163;28;20439;-61
2022/12/15 11:29:26;;;;;;;37.47;23.87;;;0.60;10.90;;;;;;5009356;28;20625;-64
2022/12/15 11:31:53;;;;;;;38.53;22.83;;;0.70;1.00;;;;;;5007899;28;20947;-66
2022/12/15 11:34:25;;;;;;;41.30;25.00;;;0.70;1.00;;;;;;5008078;28;20758;-60
2022/12/15 11:37:10;;;;;;;36.43;22.77;;;0.90;1.00;;;;;;5008382;28;20431;-66
2022/12/15 11:39:50;;;;;;;44.57;26.47;;;0.80;16.30;;;;;;5006735;28;20604;-60
2022/12/15 11:42:51;;;;;;;44.23;24.03;;;1.00;1.00;;;;;;5008581;28;20449;-62
2022/12/15 11:45:26;;;;;;;40.37;23.07;;;0.70;1.00;;;;;;4989828;28;20431;-62
2022/12/15 11:48:04;;;;;;;41.37;23.50;;;0.30;1.00;;;;;;5009985;28;20829;-62
2022/12/15 11:50:38;;;;;;;38.60;24.07;;;0.30;1.00;;;;;;5004474;28;20455;-63
2022/12/15 11:53:18;;;;;;;44.97;26.77;;;0.30;99.90;;;;;;5008949;28;20431;-66
2022/12/15 11:56:04;;;;;;;44.17;23.97;;;0.50;1.00;;;;;;5009793;28;20620;-66
2022/12/15 11:59:11;;;;;;;51.47;25.00;;;0.50;1.00;;;;;;5008261;28;20446;-66
2022/12/15 12:01:37;;;;;;;36.40;22.30;;;0.10;99.90;;;;;;5008171;28;20466;-65
2022/12/15 12:04:25;;;;;;;42.40;22.03;;;0.00;99.90;;;;;;5010313;28;21123;-65
2022/12/15 12:07:12;;;;;;;41.10;23.47;;;0.00;99.90;;;;;;5008326;28;20505;-65
2022/12/15 12:09:50;;;;;;;39.20;23.17;;;0.00;1.00;;;;;;5003352;28;20963;-65
2022/12/15 12:12:44;;;;;;;53.93;25.40;;;0.10;99.90;;;;;;5008782;28;20437;-65
2022/12/15 12:15:12;;;;;;;37.00;22.20;;;0.00;99.90;;;;;;5002394;28;20510;-65
2022/12/15 12:17:44;;;;;;;42.10;20.93;;;0.00;99.90;;;;;;5008364;28;20481;-65
2022/12/15 12:20:21;;;;;;;41.10;23.07;;;-0.70;1.00;;;;;;5010108;28;20515;-66
2022/12/15 12:23:14;;;;;;;45.67;23.57;;;-0.90;1.00;;;;;;5009498;28;20439;-66
2022/12/15 12:26:03;;;;;;;40.17;22.47;;;-0.60;1.00;;;;;;5009224;28;20521;-66
2022/12/15 12:28:44;;;;;;;37.20;19.60;;;-0.20;1.00;;;;;;5012297;28;20443;-65
2022/12/15 12:31:36;;;;;;;40.27;21.80;;;-0.40;1.00;;;;;;5011267;28;20450;-65
2022/12/15 12:34:12;;;;;;;49.13;23.90;;;-0.70;1.00;;;;;;5011559;28;20431;-65
2022/12/15 12:36:40;;;;;;;42.67;22.77;;;-0.60;1.00;;;;;;5012878;28;20430;-65
2022/12/15 12:39:19;;;;;;;42.57;24.10;;;-0.90;1.00;;;;;;5008961;28;20465;-64
2022/12/15 12:42:09;;;;;;;44.70;26.03;;;-0.90;1.00;;;;;;5006358;28;20447;-66
2022/12/15 12:44:37;;;;;;;49.97;23.93;;;-0.90;1.00;;;;;;5007876;28;20415;-66
2022/12/15 12:47:28;;;;;;;48.23;26.33;;;-0.80;1.00;;;;;;5009886;28;20450;-65
2022/12/15 12:49:58;;;;;;;44.00;24.00;;;-0.60;1.00;;;;;;5004913;28;20446;-64
2022/12/15 12:52:29;;;;;;;43.23;25.47;;;-0.80;1.00;;;;;;5010046;28;20490;-63
2022/12/15 12:55:39;;;;;;;42.90;24.70;;;-0.50;1.00;;;;;;5010686;28;20804;-63
2022/12/15 12:58:50;;;;;;;42.70;23.50;;;-0.40;1.00;;;;;;5009860;28;20445;-65
2022/12/15 13:01:36;;;;;;;35.43;20.00;;;-0.40;1.00;;;;;;5009610;28;20458;-65
2022/12/15 13:04:08;;;;;;;64.17;25.50;;;-0.30;1.00;;;;;;5007815;28;20942;-66
2022/12/15 13:06:34;;;;;;;42.93;23.40;;;0.10;1.00;;;;;;5010909;28;20430;-66
2022/12/15 13:09:18;;;;;;;41.40;23.67;;;0.10;99.90;;;;;;5011959;28;20616;-65
2022/12/15 13:11:54;;;;;;;43.60;24.60;;;0.00;1.00;;;;;;5010831;28;20768;-65
2022/12/15 13:14:38;;;;;;;40.10;25.67;;;0.00;1.00;;;;;;5009398;28;20422;-65
2022/12/15 13:17:31;;;;;;;40.60;23.20;;;0.20;1.00;;;;;;5010535;28;20419;-64
2022/12/15 13:20:00;;;;;;;53.20;25.30;;;-0.10;1.00;;;;;;5004488;28;20960;-63
2022/12/15 13:22:38;;;;;;;45.30;25.67;;;0.10;1.00;;;;;;5011811;28;20399;-66
2022/12/15 13:25:34;;;;;;;43.50;24.73;;;0.30;1.00;;;;;;5004515;28;20427;-66
2022/12/15 13:28:22;;;;;;;44.37;24.43;;;0.40;99.90;;;;;;5012640;28;20419;-66
2022/12/15 13:31:15;;;;;;;49.77;25.47;;;0.30;98.90;;;;;;5011791;28;21002;-65
2022/12/15 13:33:51;;;;;;;44.20;25.87;;;0.60;1.00;;;;;;5003242;28;20435;-66
2022/12/15 13:36:38;;;;;;;42.70;24.77;;;0.70;99.90;;;;;;5013416;28;20442;-65
2022/12/15 13:39:16;;;;;;;48.37;24.10;;;0.50;1.00;;;;;;5004937;28;20462;-66
2022/12/15 13:42:02;;;;;;;47.20;26.20;;;0.60;1.00;;;;;;5007383;28;20512;-65
2022/12/15 13:44:34;;;;;;;50.63;23.17;;;0.70;99.90;;;;;;5008040;28;20749;-62
2022/12/15 13:47:19;;;;;;;44.00;26.30;;;0.40;34.30;;;;;;5007501;28;20871;-63
2022/12/15 13:49:59;;;;;;;49.03;26.97;;;0.20;99.90;;;;;;5008925;28;20442;-64
2022/12/15 13:52:54;;;;;;;54.70;28.57;;;0.00;1.00;;;;;;5003983;28;20438;-64
2022/12/15 13:55:23;;;;;;;45.40;24.60;;;0.40;99.90;;;;;;5010148;28;20493;-65
2022/12/15 13:58:14;;;;;;;41.87;23.07;;;0.40;99.90;;;;;;5009182;28;20438;-62
2022/12/15 14:00:57;;;;;;;51.93;26.10;;;0.30;1.00;;;;;;5009733;28;20471;-65
2022/12/15 14:03:23;;;;;;;46.27;28.33;;;0.20;99.90;;;;;;5004055;28;20439;-64
2022/12/15 14:05:52;;;;;;;47.83;26.23;;;0.40;99.90;;;;;;5009535;28;20435;-65
2022/12/15 14:08:20;;;;;;;48.60;28.30;;;0.30;99.90;;;;;;5010948;28;20433;-67
2022/12/15 14:10:50;;;;;;;44.80;26.93;;;0.40;99.90;;;;;;5012651;28;20607;-66
2022/12/15 14:13:28;;;;;;;40.70;24.00;;;0.50;52.60;;;;;;5011283;28;20423;-66
2022/12/15 14:16:06;;;;;;;53.87;27.20;;;0.10;1.00;;;;;;5010489;28;20851;-66
2022/12/15 14:18:37;;;;;;;52.63;30.80;;;0.10;1.00;;;;;;5015166;28;20458;-65
2022/12/15 14:21:25;;;;;;;50.33;27.97;;;0.00;1.00;;;;;;5008406;28;20512;-65
2022/12/15 14:23:51;;;;;;;55.03;28.90;;;0.30;1.00;;;;;;5009298;28;20423;-65
2022/12/15 14:26:17;;;;;;;57.93;28.67;;;0.40;46.70;;;;;;5009878;28;20471;-66
2022/12/15 14:28:46;;;;;;;49.13;25.60;;;0.00;1.00;;;;;;5009337;28;20431;-66
2022/12/15 14:31:24;;;;;;;51.10;26.70;;;0.00;1.00;;;;;;5009514;28;20195;-67
2022/12/15 14:34:08;;;;;;;51.17;29.30;;;0.20;99.90;;;;;;5008947;28;20510;-65
2022/12/15 14:36:34;;;;;;;53.60;27.33;;;-0.10;1.00;;;;;;5007919;28;20420;-66
2022/12/15 14:39:24;;;;;;;44.20;26.87;;;-0.10;1.00;;;;;;5009527;28;20466;-65
2022/12/15 14:41:51;;;;;;;52.50;28.67;;;-0.30;1.00;;;;;;5007946;28;20502;-67
2022/12/15 14:44:26;;;;;;;48.00;26.80;;;-0.20;1.00;;;;;;5009357;28;20431;-68
2022/12/15 14:46:52;;;;;;;52.27;28.93;;;-0.10;1.00;;;;;;5009347;28;20927;-65
2022/12/15 14:49:22;;;;;;;51.93;26.77;;;-0.10;1.00;;;;;;5008345;28;20573;-66
2022/12/15 14:51:51;;;;;;;57.20;26.13;;;0.00;1.00;;;;;;5008001;28;20454;-66
2022/12/15 14:54:36;;;;;;;49.10;27.10;;;0.20;1.00;;;;;;5009213;28;20443;-66
2022/12/15 14:57:11;;;;;;;50.23;26.70;;;-0.10;1.00;;;;;;5006064;28;20439;-67
2022/12/15 14:59:40;;;;;;;53.43;27.67;;;-0.10;1.00;;;;;;5008072;28;20462;-66
2022/12/15 15:02:27;;;;;;;58.30;30.70;;;-0.10;1.00;;;;;;5039669;22;20474;-65
2022/12/15 15:05:06;;;;;;;53.80;29.40;;;0.20;1.00;;;;;;5015544;28;20498;-64
2022/12/15 15:07:33;;;;;;;57.40;30.50;;;0.00;1.00;;;;;;5010561;28;21057;-64
2022/12/15 15:10:00;;;;;;;48.13;26.87;;;0.00;1.00;;;;;;5010725;28;20429;-65
2022/12/15 15:12:46;;;;;;;48.83;26.53;;;-0.20;1.00;;;;;;5009693;28;20434;-64
2022/12/15 15:15:20;;;;;;;54.60;27.87;;;-0.30;1.00;;;;;;5010658;28;20938;-66
2022/12/15 15:17:55;;;;;;;46.37;27.30;;;-0.30;1.00;;;;;;5010663;28;20430;-66
2022/12/15 15:20:26;;;;;;;51.10;28.07;;;-0.20;1.00;;;;;;5010144;28;20951;-65
2022/12/15 15:23:07;;;;;;;42.60;23.70;;;0.10;1.00;;;;;;5010437;28;20486;-61
2022/12/15 15:25:33;;;;;;;42.53;23.63;;;-0.20;1.00;;;;;;5009749;28;20742;-63
2022/12/15 15:28:17;;;;;;;46.80;25.53;;;-0.40;1.00;;;;;;5008973;28;20510;-66
2022/12/15 15:30:48;;;;;;;62.13;28.40;;;-0.60;1.00;;;;;;5007567;28;20232;-65
2022/12/15 15:33:14;;;;;;;48.60;25.00;;;-0.50;1.00;;;;;;5009267;28;20478;-65